Cantua Creek, CA

6:40 AM PST on December 07, 2016 (GMT -0800)
GFWS112 | | Change Station
Active Advisory: Dense Fog Advisory

Elev 197 ft 36.65 °N, 120.09 °W | Updated 9 minutes ago

Clear
Clear
30.8 °F
Feels Like 31 °F
N
0.0
Wind Variable Wind from South
Gusts 0.0 mph

Today
High -- | Low -- °F
--% Chance of Precip.
Yesterday
High -- | Low -- °F
Precip. -- in
Pressure 30.17 in
Visibility 9.0 miles
Clouds Clear
Windchill 31 °F
Dew Point 30 °F
Humidity 95%
Rainfall 0.00 in
Snow Depth Not available.
7:00 AM 4:45 PM
First Quarter, 53% visible
METAR KNLC 071356Z AUTO 20004KT 9SM CLR M01/M02 A3017 RMK AO2 SLP217 T10061017
Pressure 30.17 in
Visibility 9.0 miles
Clouds Clear
Windchill 31 °F
Dew Point 30 °F
Humidity 95%
Rainfall 0.00 in
Snow Depth Not available.
7:00 AM 4:45 PM
First Quarter, 53% visible
METAR KNLC 071356Z AUTO 20004KT 9SM CLR M01/M02 A3017 RMK AO2 SLP217 T10061017

10-Day Weather Forecast

Almanac

Astronomy

Dec. 07, 2016 Rise Set
Actual Time
Civil Twilight
Nautical Twilight
Astronomical Twilight
Moon
Length of Visible Light
Length of Day
Tomorrow will be .
, % of the Moon is Illuminated

Today's Extremes

State Highs State Lows

Community

WunderPhotos

Upload Photos

1,956,116 photos uploaded!

WunderBlog® & News

Nearby

Air Quality

  Air Quality AQ Index Pollutant
Not available.

Snow Depth

Station Depth Elevation

Earthquake Activity

City Distance Mag. Time & Date
Minimum magnitude displayed is 2.5.

Coastal Water Temperatures

Place Temperature

Stations

Nearby Weather Stations

Station Location Temp. Windchill Dew Point Humidity Wind Precip. Elev Updated Type
                   

Watches & Warnings

Dense Fog Advisory
Issued: 12:35 AM PST Dec. 7, 2016 – National Weather Service

... Dense fog advisory in effect until 10 am PST this morning...

The National Weather Service in Hanford has issued a dense fog
advisory... which is in effect until 10 am PST this morning.

* Visibility... less than 1/4 mile many areas with some areas less
than 500 feet.

* Timing... densest fog in Kings and Tulare counties especially
between Hanford and Visalia and down to Corcoran and Alpaugh
through 4 am... then the dense fog will expand northward and
southward and continue through mid morning.

* Impacts... dangerous driving conditions. Dense fog can be very
patchy in nature and can catch a driver off guard. Visibility
can drop to near zero in a very short distance.

Precautionary/preparedness actions...

A dense fog advisory means visibilities will frequently be
reduced to less than one quarter mile. If driving... slow down...
use your headlights... and leave plenty of distance ahead of you.



Bean